createdAt,value
2017-07-09T00:00:52.375Z,1002.66
2017-07-09T00:02:21.170Z,1002.61
2017-07-09T00:03:43.061Z,1002.58
2017-07-09T00:05:14.569Z,1002.65
2017-07-09T00:06:28.793Z,1002.66
2017-07-09T00:07:43.666Z,1002.7
2017-07-09T00:08:57.571Z,1002.65
2017-07-09T00:10:11.762Z,1002.62
2017-07-09T00:11:41.079Z,1002.61
2017-07-09T00:12:55.835Z,1002.58
2017-07-09T00:14:09.998Z,1002.48
2017-07-09T00:15:24.291Z,1002.49
2017-07-09T00:16:37.946Z,1002.44
2017-07-09T00:17:51.564Z,1002.39
2017-07-09T00:19:05.838Z,1002.36
2017-07-09T00:20:19.301Z,1002.3
2017-07-09T00:21:33.493Z,1002.27
2017-07-09T00:22:47.677Z,1002.27
2017-07-09T00:24:01.334Z,1002.22
2017-07-09T00:25:30.259Z,1002.24
2017-07-09T00:26:44.699Z,1002.26
2017-07-09T00:27:58.497Z,1002.28
2017-07-09T00:29:12.022Z,1002.27
2017-07-09T00:30:25.935Z,1002.3
2017-07-09T00:31:40.289Z,1002.35
2017-07-09T00:32:53.906Z,1002.39
2017-07-09T00:34:07.827Z,1002.42
2017-07-09T00:35:22.659Z,1002.4
2017-07-09T00:36:36.586Z,1002.33
2017-07-09T00:37:51.100Z,1002.32
2017-07-09T00:39:04.736Z,1002.25
2017-07-09T00:40:18.649Z,1002.27
2017-07-09T00:41:32.935Z,1002.28
2017-07-09T00:42:46.542Z,1002.31
2017-07-09T00:44:01.346Z,1002.32
2017-07-09T00:45:14.731Z,1002.33
2017-07-09T00:46:28.351Z,1002.31
2017-07-09T00:47:42.339Z,1002.32
2017-07-09T00:48:56.105Z,1002.33
2017-07-09T00:50:10.170Z,1002.35
2017-07-09T00:51:23.928Z,1002.33
2017-07-09T00:52:37.721Z,1002.31
2017-07-09T00:53:51.279Z,1002.26
2017-07-09T00:55:05.363Z,1002.24
2017-07-09T00:56:20.266Z,1002.26
2017-07-09T00:57:33.858Z,1002.28
2017-07-09T00:58:48.016Z,1002.27
2017-07-09T01:00:01.850Z,1002.24
2017-07-09T01:01:15.858Z,1002.28
2017-07-09T01:02:29.861Z,1002.31
2017-07-09T01:03:43.579Z,1002.31
2017-07-09T01:04:57.039Z,1002.31
2017-07-09T01:06:11.047Z,1002.35
2017-07-09T01:07:24.851Z,1002.31
2017-07-09T01:08:38.914Z,1002.26
2017-07-09T01:09:52.740Z,1002.27
2017-07-09T01:11:07.170Z,1002.27
2017-07-09T01:12:20.805Z,1002.26
2017-07-09T01:13:34.898Z,1002.28
2017-07-09T01:14:48.964Z,1002.27
2017-07-09T01:16:02.784Z,1002.25
2017-07-09T01:17:16.549Z,1002.26
2017-07-09T01:18:30.206Z,1002.24
2017-07-09T01:19:44.438Z,1002.25
2017-07-09T01:20:58.451Z,1002.28
2017-07-09T01:22:12.671Z,1002.26
2017-07-09T01:23:26.176Z,1002.23
2017-07-09T01:24:54.506Z,1002.27
2017-07-09T01:26:08.434Z,1002.27
2017-07-09T01:27:22.157Z,1002.26
2017-07-09T01:28:35.941Z,1002.28
2017-07-09T01:29:49.465Z,1002.27
2017-07-09T01:31:02.972Z,1002.29
2017-07-09T01:32:16.715Z,1002.3
2017-07-09T01:33:30.781Z,1002.39
2017-07-09T01:34:44.902Z,1002.38
2017-07-09T01:35:58.623Z,1002.37
2017-07-09T01:37:12.712Z,1002.36
2017-07-09T01:38:27.508Z,1002.35
2017-07-09T01:39:41.516Z,1002.4
2017-07-09T01:40:55.629Z,1002.39
2017-07-09T01:42:09.688Z,1002.46
2017-07-09T01:43:29.657Z,1002.44
2017-07-09T01:44:44.043Z,1002.49
2017-07-09T01:45:57.781Z,1002.46
2017-07-09T01:47:11.290Z,1002.42
2017-07-09T01:48:25.143Z,1002.43
2017-07-09T01:49:39.070Z,1002.48
2017-07-09T01:50:53.091Z,1002.49
2017-07-09T01:52:07.146Z,1002.51
2017-07-09T01:53:21.779Z,1002.49
2017-07-09T01:54:35.238Z,1002.5
2017-07-09T01:55:48.901Z,1002.46
2017-07-09T01:57:02.691Z,1002.43
2017-07-09T01:58:31.212Z,1002.43
2017-07-09T01:59:45.185Z,1002.48
2017-07-09T02:01:14.133Z,1002.55
2017-07-09T02:02:28.231Z,1002.52
2017-07-09T02:03:56.840Z,1002.53
2017-07-09T02:05:10.440Z,1002.52
2017-07-09T02:06:23.868Z,1002.51
2017-07-09T02:07:37.386Z,1002.52
2017-07-09T02:08:51.047Z,1002.58
2017-07-09T02:10:04.715Z,1002.65
2017-07-09T02:11:18.869Z,1002.68
2017-07-09T02:12:32.871Z,1002.67
2017-07-09T02:13:46.413Z,1002.63
2017-07-09T02:15:00.115Z,1002.6
2017-07-09T02:16:14.156Z,1002.66
2017-07-09T02:17:28.070Z,1002.68
2017-07-09T02:18:41.619Z,1002.65
2017-07-09T02:19:55.381Z,1002.66
2017-07-09T02:21:09.746Z,1002.66
2017-07-09T02:22:24.250Z,1002.59
2017-07-09T02:23:37.888Z,1002.58
2017-07-09T02:24:51.583Z,1002.59
2017-07-09T02:26:05.735Z,1002.6
2017-07-09T02:27:19.826Z,1002.63
2017-07-09T02:28:33.821Z,1002.62
2017-07-09T02:29:48.151Z,1002.61
2017-07-09T02:31:01.857Z,1002.6
2017-07-09T02:32:15.343Z,1002.63
2017-07-09T02:33:29.393Z,1002.62
2017-07-09T02:34:43.660Z,1002.67
2017-07-09T02:35:57.160Z,1002.68
2017-07-09T02:37:17.762Z,1002.67
2017-07-09T02:38:31.226Z,1002.67
2017-07-09T02:39:44.949Z,1002.66
2017-07-09T02:40:58.591Z,1002.63
2017-07-09T02:42:12.051Z,1002.62
2017-07-09T02:43:25.924Z,1002.61
2017-07-09T02:44:39.397Z,1002.64
2017-07-09T02:46:07.894Z,1002.67
2017-07-09T02:47:21.351Z,1002.65
2017-07-09T02:48:35.110Z,1002.7
2017-07-09T02:49:48.802Z,1002.73
2017-07-09T02:51:02.211Z,1002.72
2017-07-09T02:52:15.884Z,1002.7
2017-07-09T02:53:29.386Z,1002.73
2017-07-09T02:54:42.804Z,1002.71
2017-07-09T02:55:56.648Z,1002.73
2017-07-09T02:57:10.118Z,1002.71
2017-07-09T02:58:23.836Z,1002.73
2017-07-09T02:59:37.295Z,1002.71
2017-07-09T03:00:50.718Z,1002.68
2017-07-09T03:02:04.553Z,1002.73
2017-07-09T03:03:18.563Z,1002.73
2017-07-09T03:04:32.875Z,1002.76
2017-07-09T03:05:46.263Z,1002.71
2017-07-09T03:06:59.683Z,1002.73
2017-07-09T03:08:13.346Z,1002.69
2017-07-09T03:09:26.827Z,1002.73
2017-07-09T03:10:40.530Z,1002.68
2017-07-09T03:11:53.964Z,1002.7
2017-07-09T03:13:07.728Z,1002.69
2017-07-09T03:14:21.536Z,1002.68
2017-07-09T03:15:34.957Z,1002.72
2017-07-09T03:16:49.569Z,1002.64
2017-07-09T03:18:03.338Z,1002.65
2017-07-09T03:19:16.987Z,1002.65
2017-07-09T03:20:30.669Z,1002.63
2017-07-09T03:21:44.396Z,1002.63
2017-07-09T03:22:58.114Z,1002.63
2017-07-09T03:24:11.520Z,1002.65
2017-07-09T03:25:25.971Z,1002.66
2017-07-09T03:26:39.644Z,1002.66
2017-07-09T03:27:53.064Z,1002.65
2017-07-09T03:29:06.726Z,1002.61
2017-07-09T03:30:20.227Z,1002.6
2017-07-09T03:31:34.484Z,1002.59
2017-07-09T03:32:48.521Z,1002.56
2017-07-09T03:34:01.931Z,1002.61
2017-07-09T03:35:15.765Z,1002.56
2017-07-09T03:36:29.493Z,1002.61
2017-07-09T03:37:43.992Z,1002.63
2017-07-09T03:38:57.820Z,1002.59
2017-07-09T03:40:11.263Z,1002.56
2017-07-09T03:42:53.595Z,1002.54
2017-07-09T03:44:07.290Z,1002.53
2017-07-09T03:45:21.135Z,1002.56
2017-07-09T03:46:34.786Z,1002.55
2017-07-09T03:47:48.245Z,1002.56
2017-07-09T03:49:02.014Z,1002.58
2017-07-09T03:50:15.729Z,1002.58
2017-07-09T03:51:29.650Z,1002.57
2017-07-09T03:52:43.298Z,1002.59
2017-07-09T03:53:56.760Z,1002.6
2017-07-09T03:55:10.211Z,1002.61
2017-07-09T03:56:23.917Z,1002.64
2017-07-09T03:57:37.501Z,1002.65
2017-07-09T03:58:51.270Z,1002.61
2017-07-09T04:00:05.185Z,1002.66
2017-07-09T04:01:18.647Z,1002.65
2017-07-09T04:02:33.450Z,1002.63
2017-07-09T04:03:46.865Z,1002.66
2017-07-09T04:05:00.967Z,1002.67
2017-07-09T04:06:14.384Z,1002.67
2017-07-09T04:07:28.409Z,1002.65
2017-07-09T04:08:42.256Z,1002.62
2017-07-09T04:09:56.072Z,1002.69
2017-07-09T04:11:09.728Z,1002.69
2017-07-09T04:12:38.022Z,1002.7
2017-07-09T04:13:51.742Z,1002.67
2017-07-09T04:15:05.429Z,1002.69
2017-07-09T04:16:19.153Z,1002.73
2017-07-09T04:17:33.016Z,1002.76
2017-07-09T04:18:46.410Z,1002.72
2017-07-09T04:21:28.676Z,1002.74
2017-07-09T04:22:42.140Z,1002.77
2017-07-09T04:23:56.124Z,1002.77
2017-07-09T04:25:09.550Z,1002.79
2017-07-09T04:26:22.963Z,1002.75
2017-07-09T04:27:36.691Z,1002.76
2017-07-09T04:28:50.166Z,1002.76
2017-07-09T04:30:04.332Z,1002.76
2017-07-09T04:31:18.058Z,1002.73
2017-07-09T04:32:31.606Z,1002.76
2017-07-09T04:33:45.619Z,1002.78
2017-07-09T04:34:59.628Z,1002.74
2017-07-09T04:36:13.307Z,1002.74
2017-07-09T04:37:26.709Z,1002.74
2017-07-09T04:38:40.159Z,1002.77
2017-07-09T04:39:53.840Z,1002.8
2017-07-09T04:41:07.264Z,1002.77
2017-07-09T04:42:20.977Z,1002.84
2017-07-09T04:43:34.430Z,1002.82
2017-07-09T04:44:48.503Z,1002.79
2017-07-09T04:46:02.163Z,1002.75
2017-07-09T04:47:15.926Z,1002.76
2017-07-09T04:48:29.795Z,1002.69
2017-07-09T04:49:43.214Z,1002.68
2017-07-09T04:50:56.624Z,1002.68
2017-07-09T04:52:10.281Z,1002.67
2017-07-09T04:53:23.719Z,1002.66
2017-07-09T04:54:37.776Z,1002.66
2017-07-09T04:55:52.280Z,1002.64
2017-07-09T04:57:05.685Z,1002.65
2017-07-09T04:58:19.373Z,1002.58
2017-07-09T04:59:33.189Z,1002.64
2017-07-09T05:00:47.188Z,1002.67
2017-07-09T05:02:02.000Z,1002.63
2017-07-09T05:03:50.549Z,1002.58
2017-07-09T05:05:24.990Z,1002.63
2017-07-09T05:07:10.714Z,1002.67
2017-07-09T05:08:29.489Z,1002.7
2017-07-09T05:09:43.751Z,1002.72
2017-07-09T05:10:57.599Z,1002.72
2017-07-09T05:12:11.247Z,1002.66
2017-07-09T05:13:24.671Z,1002.63
2017-07-09T05:14:38.091Z,1002.64
2017-07-09T05:16:07.298Z,1002.66
2017-07-09T05:17:20.958Z,1002.69
2017-07-09T05:18:35.038Z,1002.68
2017-07-09T05:19:48.920Z,1002.61
2017-07-09T05:21:02.989Z,1002.6
2017-07-09T05:22:17.630Z,1002.66
2017-07-09T05:23:31.300Z,1002.81
2017-07-09T05:24:45.086Z,1002.8
2017-07-09T05:25:58.563Z,1002.8
2017-07-09T05:27:12.439Z,1002.88
2017-07-09T05:28:26.436Z,1002.93
2017-07-09T05:29:40.601Z,1002.88
2017-07-09T05:30:54.107Z,1002.87
2017-07-09T05:32:07.610Z,1002.79
2017-07-09T05:33:21.171Z,1002.83
2017-07-09T05:34:34.931Z,1002.78
2017-07-09T05:35:48.952Z,1002.74
2017-07-09T05:37:02.714Z,1002.74
2017-07-09T05:38:16.142Z,1002.76
2017-07-09T05:39:30.089Z,1002.77
2017-07-09T05:40:43.754Z,1002.78
2017-07-09T05:41:57.576Z,1002.78
2017-07-09T05:43:11.656Z,1002.82
2017-07-09T05:44:26.607Z,1002.8
2017-07-09T05:45:40.358Z,1002.87
2017-07-09T05:46:54.081Z,1002.94
2017-07-09T05:48:08.047Z,1002.95
2017-07-09T05:49:21.794Z,1002.97
2017-07-09T05:50:35.344Z,1002.98
2017-07-09T05:51:48.815Z,1002.97
2017-07-09T05:53:02.505Z,1002.98
2017-07-09T05:54:16.161Z,1003.01
2017-07-09T05:55:30.011Z,1003.01
2017-07-09T05:56:43.740Z,1003.01
2017-07-09T05:57:57.327Z,1003.02
2017-07-09T05:59:11.054Z,1003
2017-07-09T06:00:24.706Z,1002.96
2017-07-09T06:01:38.121Z,1003.01
2017-07-09T06:02:51.884Z,1003
2017-07-09T06:04:05.375Z,1002.96
2017-07-09T06:05:19.364Z,1002.96
2017-07-09T06:06:47.994Z,1002.96
2017-07-09T06:08:01.531Z,1002.91
2017-07-09T06:09:15.510Z,1002.88
2017-07-09T06:10:44.159Z,1002.91
2017-07-09T06:11:58.268Z,1002.9
2017-07-09T06:13:12.409Z,1002.9
2017-07-09T06:14:26.146Z,1002.86
2017-07-09T06:15:39.581Z,1002.86
2017-07-09T06:16:53.261Z,1002.87
2017-07-09T06:18:06.982Z,1002.85
2017-07-09T06:19:20.397Z,1002.89
2017-07-09T06:20:34.188Z,1002.91
2017-07-09T06:21:47.692Z,1002.91
2017-07-09T06:23:01.529Z,1002.87
2017-07-09T06:24:15.199Z,1002.88
2017-07-09T06:25:28.808Z,1002.89
2017-07-09T06:26:42.318Z,1002.88
2017-07-09T06:27:56.237Z,1002.83
2017-07-09T06:29:10.242Z,1002.84
2017-07-09T06:30:24.242Z,1002.85
2017-07-09T06:31:37.665Z,1002.77
2017-07-09T06:32:51.393Z,1002.83
2017-07-09T06:34:20.459Z,1002.75
2017-07-09T06:35:34.550Z,1002.76
2017-07-09T06:36:48.863Z,1002.75
2017-07-09T06:38:02.347Z,1002.75
2017-07-09T06:39:15.796Z,1002.73
2017-07-09T06:40:29.713Z,1002.68
2017-07-09T06:41:43.117Z,1002.67
2017-07-09T06:42:56.956Z,1002.7
2017-07-09T06:44:25.583Z,1002.66
2017-07-09T06:45:39.339Z,1002.6
2017-07-09T06:46:52.917Z,1002.57
2017-07-09T06:48:06.855Z,1002.54
2017-07-09T06:49:20.500Z,1002.54
2017-07-09T06:50:49.107Z,1002.53
2017-07-09T06:52:02.624Z,1002.56
2017-07-09T06:53:16.966Z,1002.56
2017-07-09T06:54:30.998Z,1002.54
2017-07-09T06:55:44.439Z,1002.61
2017-07-09T06:56:57.957Z,1002.58
2017-07-09T06:58:11.470Z,1002.59
2017-07-09T06:59:24.998Z,1002.59
2017-07-09T07:00:39.436Z,1002.62
2017-07-09T07:01:53.006Z,1002.61
2017-07-09T07:03:07.546Z,1002.66
2017-07-09T07:04:21.113Z,1002.62
2017-07-09T07:05:34.945Z,1002.59
2017-07-09T07:06:49.999Z,1002.53
2017-07-09T07:08:18.736Z,1002.55
2017-07-09T07:09:33.169Z,1002.56
2017-07-09T07:10:47.078Z,1002.54
2017-07-09T07:12:01.018Z,1002.53
2017-07-09T07:13:14.795Z,1002.53
2017-07-09T07:14:28.269Z,1002.57
2017-07-09T07:15:42.290Z,1002.5
2017-07-09T07:16:55.825Z,1002.46
2017-07-09T07:18:10.117Z,1002.44
2017-07-09T07:19:23.564Z,1002.45
2017-07-09T07:20:38.227Z,1002.41
2017-07-09T07:21:52.590Z,1002.44
2017-07-09T07:23:06.121Z,1002.43
2017-07-09T07:24:20.048Z,1002.38
2017-07-09T07:25:34.469Z,1002.38
2017-07-09T07:26:48.051Z,1002.44
2017-07-09T07:28:02.186Z,1002.44
2017-07-09T07:29:16.194Z,1002.43
2017-07-09T07:30:30.137Z,1002.47
2017-07-09T07:31:44.042Z,1002.41
2017-07-09T07:32:57.916Z,1002.46
2017-07-09T07:34:12.572Z,1002.41
2017-07-09T07:35:26.791Z,1002.43
2017-07-09T07:36:41.179Z,1002.44
2017-07-09T07:37:54.717Z,1002.44
2017-07-09T07:39:08.186Z,1002.45
2017-07-09T07:40:22.266Z,1002.45
2017-07-09T07:41:35.860Z,1002.48
2017-07-09T07:42:49.603Z,1002.47
2017-07-09T07:44:03.277Z,1002.44
2017-07-09T07:45:17.243Z,1002.45
2017-07-09T07:46:31.125Z,1002.42
2017-07-09T07:47:44.855Z,1002.45
2017-07-09T07:48:58.970Z,1002.46
2017-07-09T07:50:12.747Z,1002.43
2017-07-09T07:51:27.229Z,1002.43
2017-07-09T07:52:41.446Z,1002.4
2017-07-09T07:54:10.648Z,1002.38
2017-07-09T07:55:24.606Z,1002.42
2017-07-09T07:56:38.446Z,1002.44
2017-07-09T07:57:52.546Z,1002.45
2017-07-09T07:59:06.980Z,1002.44
2017-07-09T08:00:20.916Z,1002.47
2017-07-09T08:01:35.391Z,1002.49
2017-07-09T08:02:48.981Z,1002.49
2017-07-09T08:04:03.491Z,1002.44
2017-07-09T08:05:17.134Z,1002.47
2017-07-09T08:06:31.466Z,1002.45
2017-07-09T08:07:45.627Z,1002.49
2017-07-09T08:10:30.063Z,1002.48
2017-07-09T08:11:51.158Z,1002.48
2017-07-09T08:13:04.956Z,1002.47
2017-07-09T08:14:33.333Z,1002.47
2017-07-09T08:15:48.615Z,1002.47
2017-07-09T08:17:02.530Z,1002.47
2017-07-09T08:18:16.255Z,1002.42
2017-07-09T08:19:29.977Z,1002.4
2017-07-09T08:20:43.501Z,1002.41
2017-07-09T08:23:31.016Z,1002.41
2017-07-09T08:24:45.159Z,1002.38
2017-07-09T08:27:59.630Z,1002.35
2017-07-09T08:29:15.419Z,1002.31
2017-07-09T08:30:35.009Z,1002.29
2017-07-09T08:31:49.313Z,1002.25
2017-07-09T08:33:06.737Z,1002.28
2017-07-09T08:34:21.185Z,1002.29
2017-07-09T08:35:50.797Z,1002.27
2017-07-09T08:37:05.101Z,1002.26
2017-07-09T08:38:19.321Z,1002.26
2017-07-09T08:39:32.895Z,1002.25
2017-07-09T08:40:47.359Z,1002.26
2017-07-09T08:42:01.512Z,1002.22
2017-07-09T08:43:16.978Z,1002.22
2017-07-09T08:44:32.651Z,1002.16
2017-07-09T08:45:46.389Z,1002.13
2017-07-09T08:47:15.230Z,1002.14
2017-07-09T08:48:30.504Z,1002.12
2017-07-09T08:49:45.351Z,1002.12
2017-07-09T08:50:59.320Z,1002.14
2017-07-09T08:52:12.848Z,1002.1
2017-07-09T08:53:26.896Z,1002.09
2017-07-09T08:54:41.091Z,1002.08
2017-07-09T08:55:55.104Z,1002.11
2017-07-09T08:57:09.299Z,1002.09
2017-07-09T08:58:23.214Z,1002.12
2017-07-09T09:01:07.840Z,1002.12
2017-07-09T09:02:22.616Z,1002.12
2017-07-09T09:03:38.391Z,1002.16
